Time,TemperatureF,DewpointF,PressureIn,WindDirection,WindDirectionDegrees,WindSpeedMPH,WindSpeedGustMPH,Humidity,HourlyPrecipIn,Conditions,Clouds,dailyrainin,SolarRadiationWatts/m^2,SoftwareType,DateUTC
2013-12-17 01:23:00,-19.0,-27.0,-100.00,NNE,22,2.0,4.0,66,0.00,,,0.00,0.000000,,2013-12-17 10:23:00,
2013-12-17 12:53:00,-15.0,-22.0,-100.00,North,-999,0.0,3.0,68,-99.99,,,0.00,23.000000,,2013-12-17 21:53:00,
2013-12-17 13:03:00,-15.0,-22.0,-100.00,North,-999,0.0,3.0,68,-99.99,,,0.00,23.000000,,2013-12-17 22:03:00,
2013-12-17 13:12:00,-15.0,-22.0,-100.00,North,-999,0.0,3.0,68,-99.99,,,0.00,23.000000,,2013-12-17 22:12:00,
2013-12-17 13:23:00,-15.0,-22.0,-100.00,North,-999,0.0,3.0,68,-99.99,,,0.00,23.000000,,2013-12-17 22:23:00,
2013-12-17 13:53:00,-10.0,-18.0,-100.00,NNE,30,1.0,3.0,65,0.00,,,0.00,48.000000,,2013-12-17 22:53:00,
2013-12-17 14:03:00,-10.0,-18.0,-100.00,NNE,30,1.0,3.0,65,0.00,,,0.00,48.000000,,2013-12-17 23:03:00,
2013-12-17 14:11:00,-10.0,-18.0,-100.00,NNE,30,1.0,3.0,65,0.00,,,0.00,48.000000,,2013-12-17 23:11:00,
2013-12-17 14:22:00,-10.0,-18.0,-100.00,NNE,30,1.0,3.0,65,0.00,,,0.00,48.000000,,2013-12-17 23:22:00,
2013-12-17 14:53:00,-8.0,-16.0,-100.00,NNE,33,1.0,3.0,66,0.00,,,0.00,40.000000,,2013-12-17 23:53:00,
2013-12-17 15:02:00,-8.0,-16.0,-100.00,NNE,33,1.0,3.0,66,0.00,,,0.00,40.000000,,2013-12-18 00:02:00,
2013-12-17 15:12:00,-8.0,-16.0,-100.00,NNE,33,1.0,3.0,66,0.00,,,0.00,40.000000,,2013-12-18 00:12:00,
2013-12-17 15:22:00,-8.0,-16.0,-100.00,NNE,33,1.0,3.0,66,0.00,,,0.00,40.000000,,2013-12-18 00:22:00,
2013-12-17 15:52:00,-9.0,-17.0,-100.00,North,356,1.0,2.0,68,0.00,,,0.00,18.000000,,2013-12-18 00:52:00,
2013-12-17 16:02:00,-9.0,-17.0,-100.00,North,356,1.0,2.0,68,0.00,,,0.00,18.000000,,2013-12-18 01:02:00,
2013-12-17 16:11:00,-9.0,-17.0,-100.00,North,356,1.0,2.0,68,0.00,,,0.00,18.000000,,2013-12-18 01:11:00,
2013-12-17 16:21:00,-9.0,-17.0,-100.00,North,356,1.0,2.0,68,0.00,,,0.00,18.000000,,2013-12-18 01:21:00,
2013-12-17 17:21:00,-13.0,-20.0,-100.00,North,-999,0.0,2.0,69,0.00,,,0.00,2.000000,,2013-12-18 02:21:00,
2013-12-17 18:22:00,-14.0,-21.0,-100.00,North,8,1.0,3.0,70,0.00,,,0.00,0.000000,,2013-12-18 03:22:00,
2013-12-17 19:23:00,-15.0,-22.0,-100.00,North,-999,0.0,3.0,69,0.00,,,0.00,0.000000,,2013-12-18 04:23:00,